createdAt,value
2023-05-02T00:00:43.819Z,100670
2023-05-02T00:06:36.038Z,100670
2023-05-02T00:13:38.011Z,100671
2023-05-02T00:19:28.568Z,100671
2023-05-02T00:25:20.690Z,100670
2023-05-02T00:31:15.298Z,100674
2023-05-02T00:37:07.418Z,100680
2023-05-02T00:43:01.716Z,100676
2023-05-02T00:48:53.654Z,100685
2023-05-02T00:54:46.148Z,100682
2023-05-02T01:00:38.052Z,100684
2023-05-02T01:06:30.039Z,100687
2023-05-02T01:12:22.487Z,100692
2023-05-02T01:18:14.081Z,100692
2023-05-02T01:24:07.078Z,100704
2023-05-02T01:29:59.699Z,100709
2023-05-02T01:35:52.511Z,100717
2023-05-02T01:41:45.740Z,100723
2023-05-02T01:47:37.762Z,100726
2023-05-02T01:53:30.385Z,100732
2023-05-02T01:59:22.910Z,100745
2023-05-02T02:05:14.644Z,100747
2023-05-02T02:11:06.646Z,100758
2023-05-02T02:16:58.382Z,100758
2023-05-02T02:22:50.978Z,100766
2023-05-02T02:28:42.748Z,100765
2023-05-02T02:34:35.057Z,100781
2023-05-02T02:40:26.353Z,100783
2023-05-02T02:46:18.270Z,100793
2023-05-02T02:52:09.659Z,100801
2023-05-02T02:58:01.943Z,100807
2023-05-02T03:03:54.405Z,100810
2023-05-02T03:09:46.648Z,100817
2023-05-02T03:15:39.326Z,100829
2023-05-02T03:21:33.215Z,100822
2023-05-02T03:27:24.703Z,100834
2023-05-02T03:33:17.915Z,100843
2023-05-02T03:39:10.479Z,100834
2023-05-02T03:45:02.592Z,100838
2023-05-02T03:50:54.666Z,100846
2023-05-02T03:56:46.210Z,100846
2023-05-02T04:02:38.757Z,100841
2023-05-02T04:08:31.473Z,100853
2023-05-02T04:14:23.719Z,100856
2023-05-02T04:20:16.732Z,100861
2023-05-02T04:26:09.342Z,100873
2023-05-02T04:32:03.968Z,100881
2023-05-02T04:37:57.694Z,100888
2023-05-02T04:43:49.906Z,100896
2023-05-02T04:49:42.136Z,100901
2023-05-02T04:55:34.481Z,100912
2023-05-02T05:01:26.320Z,100912
2023-05-02T05:07:18.558Z,100922
2023-05-02T05:13:10.881Z,100925
2023-05-02T05:19:02.965Z,100928
2023-05-02T05:24:55.538Z,100940
2023-05-02T05:30:47.320Z,100943
2023-05-02T05:36:39.495Z,100944
2023-05-02T05:42:31.512Z,100958
2023-05-02T05:48:23.207Z,100964
2023-05-02T05:54:16.294Z,100978
2023-05-02T06:00:08.269Z,100981
2023-05-02T06:06:02.052Z,100995
2023-05-02T06:11:55.229Z,100994
2023-05-02T06:17:47.198Z,101000
2023-05-02T06:23:39.744Z,101009
2023-05-02T06:29:33.082Z,101010
2023-05-02T06:35:26.566Z,101018
2023-05-02T06:41:21.229Z,101027
2023-05-02T06:47:11.522Z,101041
2023-05-02T06:53:03.176Z,101047
2023-05-02T06:58:55.080Z,101057
2023-05-02T07:04:48.367Z,101066
2023-05-02T07:10:40.860Z,101072
2023-05-02T07:16:33.031Z,101080
2023-05-02T07:22:25.342Z,101081
2023-05-02T07:28:15.650Z,101086
2023-05-02T07:34:07.813Z,101095
2023-05-02T07:40:01.398Z,101100
2023-05-02T07:45:56.323Z,101103
2023-05-02T07:51:49.291Z,101112
2023-05-02T07:57:41.376Z,101109
2023-05-02T08:03:35.874Z,101117
2023-05-02T08:09:30.021Z,101121
2023-05-02T08:15:23.056Z,101125
2023-05-02T08:21:14.476Z,101126
2023-05-02T08:27:06.393Z,101135
2023-05-02T08:33:01.881Z,101141
2023-05-02T08:38:53.661Z,101146
2023-05-02T08:44:46.114Z,101155
2023-05-02T08:50:38.896Z,101163
2023-05-02T08:56:30.809Z,101171
2023-05-02T09:02:24.384Z,101172
2023-05-02T09:08:16.166Z,101180
2023-05-02T09:14:08.029Z,101194
2023-05-02T09:20:00.372Z,101214
2023-05-02T09:25:52.069Z,101220
2023-05-02T09:31:58.095Z,101229
2023-05-02T09:37:47.219Z,101234
2023-05-02T09:43:37.096Z,101238
2023-05-02T09:49:29.018Z,101233
2023-05-02T09:55:19.565Z,101236
2023-05-02T10:01:10.061Z,101237
2023-05-02T10:07:01.844Z,101243
2023-05-02T10:12:55.446Z,101245
2023-05-02T10:18:47.052Z,101247
2023-05-02T10:24:38.864Z,101257
2023-05-02T10:30:33.445Z,101259
2023-05-02T10:36:25.307Z,101270
2023-05-02T10:42:16.795Z,101281
2023-05-02T10:48:08.623Z,101285
2023-05-02T10:54:03.081Z,101283
2023-05-02T10:59:57.865Z,101281
2023-05-02T11:05:50.064Z,101287
2023-05-02T11:11:41.860Z,101293
2023-05-02T11:17:34.746Z,101301
2023-05-02T11:23:27.344Z,101287
2023-05-02T11:29:22.980Z,101286
2023-05-02T11:35:15.581Z,101276
2023-05-02T11:41:07.862Z,101292
2023-05-02T11:47:00.124Z,101284
2023-05-02T11:53:07.131Z,101295
2023-05-02T12:05:14.198Z,101291
2023-05-02T12:11:05.846Z,101290
2023-05-02T12:16:56.822Z,101296
2023-05-02T12:22:48.338Z,101300
2023-05-02T12:28:40.469Z,101317
2023-05-02T12:34:32.677Z,101322
2023-05-02T12:40:25.411Z,101318
2023-05-02T12:46:16.860Z,101326
2023-05-02T12:52:09.013Z,101329
2023-05-02T12:58:00.316Z,101338
2023-05-02T13:03:52.426Z,101340
2023-05-02T13:09:43.447Z,101345
2023-05-02T13:15:34.786Z,101337
2023-05-02T13:21:25.722Z,101339
2023-05-02T13:27:16.043Z,101345
2023-05-02T13:33:07.341Z,101341
2023-05-02T13:38:58.126Z,101345
2023-05-02T13:44:47.503Z,101347
2023-05-02T13:50:37.884Z,101347
2023-05-02T13:56:28.290Z,101348
2023-05-02T14:02:19.438Z,101344
2023-05-02T14:08:10.236Z,101341
2023-05-02T14:14:01.870Z,101346
2023-05-02T14:19:54.469Z,101347
2023-05-02T14:25:46.802Z,101357
2023-05-02T14:31:39.265Z,101355
2023-05-02T14:37:30.912Z,101357
2023-05-02T14:43:24.943Z,101362
2023-05-02T14:49:16.996Z,101342
2023-05-02T14:55:09.233Z,101353
2023-05-02T15:01:02.184Z,101356
2023-05-02T15:06:54.967Z,101348
2023-05-02T15:12:49.031Z,101349
2023-05-02T15:18:41.103Z,101346
2023-05-02T15:24:34.597Z,101330
2023-05-02T15:30:27.242Z,101355
2023-05-02T15:36:18.748Z,101362
2023-05-02T15:42:10.999Z,101356
2023-05-02T15:48:04.002Z,101361
2023-05-02T15:53:56.196Z,101377
2023-05-02T16:00:58.765Z,101360
2023-05-02T16:06:51.905Z,101369
2023-05-02T16:12:45.802Z,101366
2023-05-02T16:18:39.917Z,101376
2023-05-02T16:24:33.141Z,101372
2023-05-02T16:30:27.782Z,101375
2023-05-02T16:36:22.383Z,101375
2023-05-02T16:42:24.045Z,101376
2023-05-02T16:48:21.945Z,101381
2023-05-02T16:54:18.113Z,101374
2023-05-02T17:00:12.450Z,101377
2023-05-02T17:06:06.209Z,101388
2023-05-02T17:11:59.058Z,101387
2023-05-02T17:17:55.218Z,101388
2023-05-02T17:23:46.670Z,101389
2023-05-02T17:29:39.295Z,101398
2023-05-02T17:35:31.152Z,101393
2023-05-02T17:41:24.135Z,101395
2023-05-02T17:47:16.911Z,101400
2023-05-02T17:53:11.666Z,101400
2023-05-02T17:59:03.342Z,101400
2023-05-02T18:04:56.520Z,101400
2023-05-02T18:10:57.008Z,101406
2023-05-02T18:16:47.215Z,101410
2023-05-02T18:22:42.823Z,101411
2023-05-02T18:28:46.710Z,101418
2023-05-02T18:34:43.636Z,101420
2023-05-02T18:40:45.808Z,101418
2023-05-02T18:46:47.671Z,101422
2023-05-02T18:52:39.600Z,101422
2023-05-02T18:58:31.493Z,101420
2023-05-02T19:04:23.270Z,101422
2023-05-02T19:10:17.016Z,101437
2023-05-02T19:16:09.853Z,101443
2023-05-02T19:22:02.069Z,101455
2023-05-02T19:27:53.495Z,101469
2023-05-02T19:33:43.071Z,101462
2023-05-02T19:39:36.410Z,101467
2023-05-02T19:45:30.994Z,101478
2023-05-02T19:51:21.669Z,101482
2023-05-02T19:57:13.591Z,101490
2023-05-02T20:03:12.267Z,101493
2023-05-02T20:09:03.162Z,101495
2023-05-02T20:14:54.166Z,101503
2023-05-02T20:20:44.664Z,101510
2023-05-02T20:26:37.624Z,101514
2023-05-02T20:32:30.085Z,101513
2023-05-02T20:38:27.400Z,101523
2023-05-02T20:44:21.291Z,101526
2023-05-02T20:50:12.520Z,101528
2023-05-02T20:56:08.150Z,101535
2023-05-02T21:02:02.198Z,101532
2023-05-02T21:07:55.371Z,101537
2023-05-02T21:13:47.676Z,101547
2023-05-02T21:19:38.497Z,101543
2023-05-02T21:25:32.423Z,101547
2023-05-02T21:31:23.852Z,101552
2023-05-02T21:37:17.512Z,101549
2023-05-02T21:43:08.962Z,101560
2023-05-02T21:49:01.311Z,101561
2023-05-02T21:54:53.288Z,101566
2023-05-02T22:00:44.925Z,101564
2023-05-02T22:06:38.304Z,101564
2023-05-02T22:12:28.943Z,101572
2023-05-02T22:18:21.632Z,101563
2023-05-02T22:24:13.004Z,101565
2023-05-02T22:30:06.570Z,101576
2023-05-02T22:35:57.208Z,101573
2023-05-02T22:41:48.705Z,101580
2023-05-02T22:47:42.695Z,101572
2023-05-02T22:53:33.963Z,101584
2023-05-02T22:59:24.250Z,101588
2023-05-02T23:05:18.990Z,101584
2023-05-02T23:11:11.110Z,101588
2023-05-02T23:17:02.163Z,101590
2023-05-02T23:22:54.001Z,101578
2023-05-02T23:28:45.271Z,101577
2023-05-02T23:34:36.665Z,101575
2023-05-02T23:40:26.577Z,101574
2023-05-02T23:46:22.677Z,101570
2023-05-02T23:52:13.657Z,101570
2023-05-02T23:58:05.033Z,101573
